sensor_id;sensor_type;location;lat;lon;timestamp;P1;durP1;ratioP1;P2;durP2;ratioP2
9821;SDS011;4950;46.042;14.472;2023-03-24T00:01:41;9.40;;;6.25;;
9821;SDS011;4950;46.042;14.472;2023-03-24T00:04:08;9.95;;;5.78;;
9821;SDS011;4950;46.042;14.472;2023-03-24T00:06:36;7.95;;;5.38;;
9821;SDS011;4950;46.042;14.472;2023-03-24T00:09:03;10.70;;;5.93;;
9821;SDS011;4950;46.042;14.472;2023-03-24T00:11:30;8.55;;;5.80;;
9821;SDS011;4950;46.042;14.472;2023-03-24T00:13:59;9.90;;;5.97;;
9821;SDS011;4950;46.042;14.472;2023-03-24T00:16:27;12.48;;;5.60;;
9821;SDS011;4950;46.042;14.472;2023-03-24T00:18:54;10.32;;;5.78;;
9821;SDS011;4950;46.042;14.472;2023-03-24T00:21:21;9.70;;;5.53;;
9821;SDS011;4950;46.042;14.472;2023-03-24T00:23:50;9.18;;;5.53;;
9821;SDS011;4950;46.042;14.472;2023-03-24T00:26:20;8.75;;;5.40;;
9821;SDS011;4950;46.042;14.472;2023-03-24T00:31:16;8.13;;;5.20;;
9821;SDS011;4950;46.042;14.472;2023-03-24T00:33:44;10.73;;;6.25;;
9821;SDS011;4950;46.042;14.472;2023-03-24T00:36:15;12.35;;;6.53;;
9821;SDS011;4950;46.042;14.472;2023-03-24T00:38:43;9.40;;;5.53;;
9821;SDS011;4950;46.042;14.472;2023-03-24T00:41:12;12.50;;;6.75;;
9821;SDS011;4950;46.042;14.472;2023-03-24T00:43:41;11.13;;;6.60;;
9821;SDS011;4950;46.042;14.472;2023-03-24T00:46:11;12.02;;;6.75;;
9821;SDS011;4950;46.042;14.472;2023-03-24T00:48:52;11.73;;;5.80;;
9821;SDS011;4950;46.042;14.472;2023-03-24T00:51:22;11.43;;;6.80;;
9821;SDS011;4950;46.042;14.472;2023-03-24T00:53:49;11.40;;;6.82;;
9821;SDS011;4950;46.042;14.472;2023-03-24T00:56:23;10.98;;;6.22;;
9821;SDS011;4950;46.042;14.472;2023-03-24T00:58:51;11.07;;;6.38;;
9821;SDS011;4950;46.042;14.472;2023-03-24T01:01:18;12.85;;;7.03;;
9821;SDS011;4950;46.042;14.472;2023-03-24T01:03:47;10.13;;;6.38;;
9821;SDS011;4950;46.042;14.472;2023-03-24T01:06:14;9.65;;;6.70;;
9821;SDS011;4950;46.042;14.472;2023-03-24T01:08:42;11.90;;;6.47;;
9821;SDS011;4950;46.042;14.472;2023-03-24T01:11:09;19.52;;;7.60;;
9821;SDS011;4950;46.042;14.472;2023-03-24T01:13:38;11.73;;;7.60;;
9821;SDS011;4950;46.042;14.472;2023-03-24T01:16:05;16.10;;;7.80;;
9821;SDS011;4950;46.042;14.472;2023-03-24T01:18:33;11.40;;;7.35;;
9821;SDS011;4950;46.042;14.472;2023-03-24T01:21:05;11.48;;;7.22;;
9821;SDS011;4950;46.042;14.472;2023-03-24T01:23:33;12.33;;;6.67;;
9821;SDS011;4950;46.042;14.472;2023-03-24T01:26:03;11.45;;;7.28;;
9821;SDS011;4950;46.042;14.472;2023-03-24T01:28:30;11.18;;;6.78;;
9821;SDS011;4950;46.042;14.472;2023-03-24T01:30:58;12.70;;;7.30;;
9821;SDS011;4950;46.042;14.472;2023-03-24T01:33:25;10.75;;;6.57;;
9821;SDS011;4950;46.042;14.472;2023-03-24T01:35:52;11.38;;;6.00;;
9821;SDS011;4950;46.042;14.472;2023-03-24T01:38:19;13.77;;;7.00;;
9821;SDS011;4950;46.042;14.472;2023-03-24T01:40:45;12.68;;;6.70;;
9821;SDS011;4950;46.042;14.472;2023-03-24T01:43:15;17.35;;;6.68;;
9821;SDS011;4950;46.042;14.472;2023-03-24T01:45:50;10.60;;;7.10;;
9821;SDS011;4950;46.042;14.472;2023-03-24T01:48:25;10.15;;;6.97;;
9821;SDS011;4950;46.042;14.472;2023-03-24T01:50:58;12.93;;;7.45;;
9821;SDS011;4950;46.042;14.472;2023-03-24T01:53:27;9.05;;;6.88;;
9821;SDS011;4950;46.042;14.472;2023-03-24T01:55:55;11.27;;;7.22;;
9821;SDS011;4950;46.042;14.472;2023-03-24T01:58:22;10.80;;;7.15;;
9821;SDS011;4950;46.042;14.472;2023-03-24T02:00:52;11.68;;;6.70;;
9821;SDS011;4950;46.042;14.472;2023-03-24T02:03:20;12.63;;;7.85;;
9821;SDS011;4950;46.042;14.472;2023-03-24T02:05:52;12.70;;;7.70;;
9821;SDS011;4950;46.042;14.472;2023-03-24T02:08:23;16.13;;;7.35;;
9821;SDS011;4950;46.042;14.472;2023-03-24T02:10:55;10.65;;;6.63;;
9821;SDS011;4950;46.042;14.472;2023-03-24T02:13:24;11.25;;;7.05;;
9821;SDS011;4950;46.042;14.472;2023-03-24T02:15:54;10.43;;;7.45;;
9821;SDS011;4950;46.042;14.472;2023-03-24T02:18:32;10.27;;;6.63;;
9821;SDS011;4950;46.042;14.472;2023-03-24T02:24:29;10.68;;;7.07;;
9821;SDS011;4950;46.042;14.472;2023-03-24T02:27:22;11.32;;;6.28;;
9821;SDS011;4950;46.042;14.472;2023-03-24T02:30:12;10.15;;;6.43;;
9821;SDS011;4950;46.042;14.472;2023-03-24T02:36:25;13.75;;;7.13;;
9821;SDS011;4950;46.042;14.472;2023-03-24T02:42:05;10.18;;;7.05;;
9821;SDS011;4950;46.042;14.472;2023-03-24T02:44:44;12.68;;;8.55;;
9821;SDS011;4950;46.042;14.472;2023-03-24T02:47:19;10.23;;;6.70;;
9821;SDS011;4950;46.042;14.472;2023-03-24T02:49:52;9.95;;;7.13;;
9821;SDS011;4950;46.042;14.472;2023-03-24T02:52:29;12.23;;;6.88;;
9821;SDS011;4950;46.042;14.472;2023-03-24T02:55:04;12.80;;;8.50;;
9821;SDS011;4950;46.042;14.472;2023-03-24T02:57:37;18.20;;;7.80;;
9821;SDS011;4950;46.042;14.472;2023-03-24T03:00:09;12.40;;;7.10;;
9821;SDS011;4950;46.042;14.472;2023-03-24T03:02:42;11.82;;;7.28;;
9821;SDS011;4950;46.042;14.472;2023-03-24T03:05:12;10.60;;;7.40;;
9821;SDS011;4950;46.042;14.472;2023-03-24T03:07:43;13.85;;;7.47;;
9821;SDS011;4950;46.042;14.472;2023-03-24T03:10:14;12.77;;;7.50;;
9821;SDS011;4950;46.042;14.472;2023-03-24T03:12:43;14.55;;;8.20;;
9821;SDS011;4950;46.042;14.472;2023-03-24T03:15:14;10.55;;;7.25;;
9821;SDS011;4950;46.042;14.472;2023-03-24T03:17:44;14.77;;;7.38;;
9821;SDS011;4950;46.042;14.472;2023-03-24T03:20:18;12.40;;;7.38;;
9821;SDS011;4950;46.042;14.472;2023-03-24T03:22:47;8.93;;;6.60;;
9821;SDS011;4950;46.042;14.472;2023-03-24T03:25:21;15.95;;;7.55;;
9821;SDS011;4950;46.042;14.472;2023-03-24T03:27:51;13.60;;;7.07;;
9821;SDS011;4950;46.042;14.472;2023-03-24T03:30:21;13.43;;;7.65;;
9821;SDS011;4950;46.042;14.472;2023-03-24T03:32:54;17.08;;;6.90;;
9821;SDS011;4950;46.042;14.472;2023-03-24T03:35:27;13.07;;;7.43;;
9821;SDS011;4950;46.042;14.472;2023-03-24T03:38:01;11.63;;;7.10;;
9821;SDS011;4950;46.042;14.472;2023-03-24T03:43:07;14.50;;;6.72;;
9821;SDS011;4950;46.042;14.472;2023-03-24T03:45:34;13.98;;;8.35;;
9821;SDS011;4950;46.042;14.472;2023-03-24T03:48:01;12.32;;;7.65;;
9821;SDS011;4950;46.042;14.472;2023-03-24T03:50:28;11.45;;;7.75;;
9821;SDS011;4950;46.042;14.472;2023-03-24T03:52:55;13.68;;;7.78;;
9821;SDS011;4950;46.042;14.472;2023-03-24T03:55:22;16.25;;;9.27;;
9821;SDS011;4950;46.042;14.472;2023-03-24T03:57:50;16.67;;;8.05;;
9821;SDS011;4950;46.042;14.472;2023-03-24T04:00:18;13.40;;;8.05;;
9821;SDS011;4950;46.042;14.472;2023-03-24T04:03:04;12.68;;;8.40;;
9821;SDS011;4950;46.042;14.472;2023-03-24T04:05:55;11.98;;;7.95;;
9821;SDS011;4950;46.042;14.472;2023-03-24T04:08:31;13.82;;;8.05;;
9821;SDS011;4950;46.042;14.472;2023-03-24T04:14:17;11.20;;;7.15;;
9821;SDS011;4950;46.042;14.472;2023-03-24T04:16:57;11.00;;;7.38;;
9821;SDS011;4950;46.042;14.472;2023-03-24T04:19:37;10.70;;;7.32;;
9821;SDS011;4950;46.042;14.472;2023-03-24T04:22:17;11.90;;;7.05;;
9821;SDS011;4950;46.042;14.472;2023-03-24T04:24:54;12.20;;;7.68;;
9821;SDS011;4950;46.042;14.472;2023-03-24T04:27:24;13.80;;;7.72;;
9821;SDS011;4950;46.042;14.472;2023-03-24T04:30:04;13.48;;;8.13;;
9821;SDS011;4950;46.042;14.472;2023-03-24T04:32:41;11.90;;;7.97;;
9821;SDS011;4950;46.042;14.472;2023-03-24T04:35:15;11.65;;;8.15;;
9821;SDS011;4950;46.042;14.472;2023-03-24T04:37:50;11.18;;;7.65;;
9821;SDS011;4950;46.042;14.472;2023-03-24T04:40:18;12.90;;;7.97;;
9821;SDS011;4950;46.042;14.472;2023-03-24T04:45:18;12.15;;;7.30;;
9821;SDS011;4950;46.042;14.472;2023-03-24T04:47:50;12.45;;;8.23;;
9821;SDS011;4950;46.042;14.472;2023-03-24T04:50:30;13.02;;;8.00;;
9821;SDS011;4950;46.042;14.472;2023-03-24T04:52:58;13.40;;;7.95;;
9821;SDS011;4950;46.042;14.472;2023-03-24T04:55:36;12.15;;;8.23;;
9821;SDS011;4950;46.042;14.472;2023-03-24T04:58:18;13.10;;;8.63;;
9821;SDS011;4950;46.042;14.472;2023-03-24T05:00:48;13.05;;;7.93;;
9821;SDS011;4950;46.042;14.472;2023-03-24T05:03:16;17.00;;;8.98;;
9821;SDS011;4950;46.042;14.472;2023-03-24T05:05:44;15.05;;;8.13;;
9821;SDS011;4950;46.042;14.472;2023-03-24T05:08:13;11.70;;;7.78;;
9821;SDS011;4950;46.042;14.472;2023-03-24T05:10:40;14.88;;;7.65;;
9821;SDS011;4950;46.042;14.472;2023-03-24T05:13:07;12.15;;;7.43;;
9821;SDS011;4950;46.042;14.472;2023-03-24T05:15:34;11.63;;;7.40;;
9821;SDS011;4950;46.042;14.472;2023-03-24T05:18:02;11.77;;;7.53;;
9821;SDS011;4950;46.042;14.472;2023-03-24T05:20:30;10.82;;;6.75;;
9821;SDS011;4950;46.042;14.472;2023-03-24T05:22:57;17.58;;;7.53;;
9821;SDS011;4950;46.042;14.472;2023-03-24T05:25:25;11.57;;;6.90;;
9821;SDS011;4950;46.042;14.472;2023-03-24T05:27:52;11.85;;;7.72;;
9821;SDS011;4950;46.042;14.472;2023-03-24T05:30:19;12.20;;;7.97;;
9821;SDS011;4950;46.042;14.472;2023-03-24T05:32:45;15.15;;;8.07;;
9821;SDS011;4950;46.042;14.472;2023-03-24T05:35:13;14.93;;;8.60;;
9821;SDS011;4950;46.042;14.472;2023-03-24T05:37:40;13.50;;;8.88;;
9821;SDS011;4950;46.042;14.472;2023-03-24T05:40:07;14.73;;;8.95;;
9821;SDS011;4950;46.042;14.472;2023-03-24T05:42:35;14.63;;;8.85;;
9821;SDS011;4950;46.042;14.472;2023-03-24T05:45:02;16.90;;;8.38;;
9821;SDS011;4950;46.042;14.472;2023-03-24T05:47:29;14.75;;;8.98;;
9821;SDS011;4950;46.042;14.472;2023-03-24T05:49:56;18.13;;;9.50;;
9821;SDS011;4950;46.042;14.472;2023-03-24T05:52:24;17.80;;;9.30;;
9821;SDS011;4950;46.042;14.472;2023-03-24T05:54:51;16.30;;;9.30;;
9821;SDS011;4950;46.042;14.472;2023-03-24T05:57:18;23.38;;;9.40;;
9821;SDS011;4950;46.042;14.472;2023-03-24T05:59:45;17.42;;;8.98;;
9821;SDS011;4950;46.042;14.472;2023-03-24T06:02:12;16.95;;;8.85;;
9821;SDS011;4950;46.042;14.472;2023-03-24T06:04:39;13.48;;;8.73;;
9821;SDS011;4950;46.042;14.472;2023-03-24T06:07:10;16.40;;;8.70;;
9821;SDS011;4950;46.042;14.472;2023-03-24T06:09:38;17.08;;;8.50;;
9821;SDS011;4950;46.042;14.472;2023-03-24T06:12:06;16.90;;;7.72;;
9821;SDS011;4950;46.042;14.472;2023-03-24T06:14:33;15.00;;;8.05;;
9821;SDS011;4950;46.042;14.472;2023-03-24T06:17:00;14.10;;;7.88;;
9821;SDS011;4950;46.042;14.472;2023-03-24T06:19:27;16.73;;;8.32;;
9821;SDS011;4950;46.042;14.472;2023-03-24T06:21:55;20.60;;;8.27;;
9821;SDS011;4950;46.042;14.472;2023-03-24T06:24:27;12.05;;;7.35;;
9821;SDS011;4950;46.042;14.472;2023-03-24T06:26:55;13.50;;;7.43;;
9821;SDS011;4950;46.042;14.472;2023-03-24T06:29:26;12.55;;;6.90;;
9821;SDS011;4950;46.042;14.472;2023-03-24T06:31:53;11.43;;;6.47;;
9821;SDS011;4950;46.042;14.472;2023-03-24T06:34:20;10.95;;;6.57;;
9821;SDS011;4950;46.042;14.472;2023-03-24T06:36:49;10.75;;;6.78;;
9821;SDS011;4950;46.042;14.472;2023-03-24T06:39:15;11.27;;;6.60;;
9821;SDS011;4950;46.042;14.472;2023-03-24T06:41:42;13.52;;;6.90;;
9821;SDS011;4950;46.042;14.472;2023-03-24T06:44:10;9.20;;;6.03;;
9821;SDS011;4950;46.042;14.472;2023-03-24T06:46:37;12.05;;;6.75;;
9821;SDS011;4950;46.042;14.472;2023-03-24T06:49:04;9.20;;;6.55;;
9821;SDS011;4950;46.042;14.472;2023-03-24T06:51:31;13.80;;;7.50;;
9821;SDS011;4950;46.042;14.472;2023-03-24T06:53:58;14.80;;;7.13;;
9821;SDS011;4950;46.042;14.472;2023-03-24T06:56:25;20.55;;;8.32;;
9821;SDS011;4950;46.042;14.472;2023-03-24T06:58:52;45.35;;;10.35;;
9821;SDS011;4950;46.042;14.472;2023-03-24T07:01:20;36.17;;;9.80;;
9821;SDS011;4950;46.042;14.472;2023-03-24T07:06:15;15.18;;;6.40;;
9821;SDS011;4950;46.042;14.472;2023-03-24T07:08:42;12.60;;;5.63;;
9821;SDS011;4950;46.042;14.472;2023-03-24T07:11:10;15.82;;;6.47;;
9821;SDS011;4950;46.042;14.472;2023-03-24T07:13:37;11.30;;;5.95;;
9821;SDS011;4950;46.042;14.472;2023-03-24T07:16:03;9.43;;;5.75;;
9821;SDS011;4950;46.042;14.472;2023-03-24T07:18:32;11.75;;;5.25;;
9821;SDS011;4950;46.042;14.472;2023-03-24T07:21:00;10.07;;;5.10;;
9821;SDS011;4950;46.042;14.472;2023-03-24T07:23:26;11.38;;;5.47;;
9821;SDS011;4950;46.042;14.472;2023-03-24T07:25:54;25.95;;;9.05;;
9821;SDS011;4950;46.042;14.472;2023-03-24T07:28:21;10.07;;;6.13;;
9821;SDS011;4950;46.042;14.472;2023-03-24T07:30:47;11.55;;;5.00;;
9821;SDS011;4950;46.042;14.472;2023-03-24T07:33:14;9.98;;;4.38;;
9821;SDS011;4950;46.042;14.472;2023-03-24T07:35:42;7.28;;;4.22;;
9821;SDS011;4950;46.042;14.472;2023-03-24T07:38:10;12.20;;;4.55;;
9821;SDS011;4950;46.042;14.472;2023-03-24T07:40:37;7.68;;;3.92;;
9821;SDS011;4950;46.042;14.472;2023-03-24T07:43:04;6.63;;;3.60;;
9821;SDS011;4950;46.042;14.472;2023-03-24T07:45:31;9.98;;;3.95;;
9821;SDS011;4950;46.042;14.472;2023-03-24T07:47:58;7.47;;;4.05;;
9821;SDS011;4950;46.042;14.472;2023-03-24T07:50:26;9.07;;;3.55;;
9821;SDS011;4950;46.042;14.472;2023-03-24T07:52:54;6.63;;;3.65;;
9821;SDS011;4950;46.042;14.472;2023-03-24T07:55:22;8.87;;;3.93;;
9821;SDS011;4950;46.042;14.472;2023-03-24T07:57:49;11.88;;;3.83;;
9821;SDS011;4950;46.042;14.472;2023-03-24T08:00:17;6.45;;;3.85;;
9821;SDS011;4950;46.042;14.472;2023-03-24T08:02:49;8.38;;;4.40;;
9821;SDS011;4950;46.042;14.472;2023-03-24T08:05:17;13.35;;;4.00;;
9821;SDS011;4950;46.042;14.472;2023-03-24T08:07:45;10.93;;;4.47;;
9821;SDS011;4950;46.042;14.472;2023-03-24T08:10:19;9.45;;;4.30;;
9821;SDS011;4950;46.042;14.472;2023-03-24T08:12:47;11.52;;;3.78;;
9821;SDS011;4950;46.042;14.472;2023-03-24T08:15:14;5.80;;;3.20;;
9821;SDS011;4950;46.042;14.472;2023-03-24T08:17:41;5.93;;;2.97;;
9821;SDS011;4950;46.042;14.472;2023-03-24T08:20:09;5.63;;;3.40;;
9821;SDS011;4950;46.042;14.472;2023-03-24T08:22:38;8.10;;;3.55;;
9821;SDS011;4950;46.042;14.472;2023-03-24T08:25:06;7.32;;;3.47;;
9821;SDS011;4950;46.042;14.472;2023-03-24T08:27:35;11.90;;;3.90;;
9821;SDS011;4950;46.042;14.472;2023-03-24T08:30:03;8.85;;;3.85;;
9821;SDS011;4950;46.042;14.472;2023-03-24T08:32:31;8.43;;;3.38;;
9821;SDS011;4950;46.042;14.472;2023-03-24T08:34:58;11.23;;;3.70;;
9821;SDS011;4950;46.042;14.472;2023-03-24T08:37:24;7.93;;;3.60;;
9821;SDS011;4950;46.042;14.472;2023-03-24T08:39:51;6.93;;;3.63;;
9821;SDS011;4950;46.042;14.472;2023-03-24T08:42:22;8.63;;;3.88;;
9821;SDS011;4950;46.042;14.472;2023-03-24T08:44:50;11.90;;;3.40;;
9821;SDS011;4950;46.042;14.472;2023-03-24T08:47:17;9.88;;;4.00;;
9821;SDS011;4950;46.042;14.472;2023-03-24T08:49:44;8.27;;;3.72;;
9821;SDS011;4950;46.042;14.472;2023-03-24T08:52:10;9.35;;;3.78;;
9821;SDS011;4950;46.042;14.472;2023-03-24T08:54:37;10.55;;;3.78;;
9821;SDS011;4950;46.042;14.472;2023-03-24T08:57:04;9.32;;;3.47;;
9821;SDS011;4950;46.042;14.472;2023-03-24T08:59:31;10.38;;;3.72;;
9821;SDS011;4950;46.042;14.472;2023-03-24T09:01:59;9.55;;;3.78;;
9821;SDS011;4950;46.042;14.472;2023-03-24T09:04:26;12.17;;;4.10;;
9821;SDS011;4950;46.042;14.472;2023-03-24T09:06:52;13.88;;;4.57;;
9821;SDS011;4950;46.042;14.472;2023-03-24T09:09:24;7.50;;;4.15;;
9821;SDS011;4950;46.042;14.472;2023-03-24T09:11:51;14.98;;;4.47;;
9821;SDS011;4950;46.042;14.472;2023-03-24T09:14:18;10.50;;;4.78;;
9821;SDS011;4950;46.042;14.472;2023-03-24T09:16:46;7.87;;;3.97;;
9821;SDS011;4950;46.042;14.472;2023-03-24T09:19:15;8.25;;;4.03;;
9821;SDS011;4950;46.042;14.472;2023-03-24T09:21:42;9.32;;;4.57;;
9821;SDS011;4950;46.042;14.472;2023-03-24T09:24:09;9.18;;;4.38;;
9821;SDS011;4950;46.042;14.472;2023-03-24T09:26:36;7.57;;;4.32;;
9821;SDS011;4950;46.042;14.472;2023-03-24T09:29:03;10.57;;;3.88;;
9821;SDS011;4950;46.042;14.472;2023-03-24T09:31:30;11.10;;;3.70;;
9821;SDS011;4950;46.042;14.472;2023-03-24T09:33:56;10.38;;;4.15;;
9821;SDS011;4950;46.042;14.472;2023-03-24T09:36:25;11.75;;;3.97;;
9821;SDS011;4950;46.042;14.472;2023-03-24T09:38:52;8.05;;;3.72;;
9821;SDS011;4950;46.042;14.472;2023-03-24T09:41:20;8.15;;;3.47;;
9821;SDS011;4950;46.042;14.472;2023-03-24T09:43:52;7.80;;;3.67;;
9821;SDS011;4950;46.042;14.472;2023-03-24T09:46:23;8.15;;;3.67;;
9821;SDS011;4950;46.042;14.472;2023-03-24T09:48:54;8.80;;;4.40;;
9821;SDS011;4950;46.042;14.472;2023-03-24T09:51:22;7.82;;;3.88;;
9821;SDS011;4950;46.042;14.472;2023-03-24T09:53:53;7.47;;;3.50;;
9821;SDS011;4950;46.042;14.472;2023-03-24T09:56:26;7.07;;;3.22;;
9821;SDS011;4950;46.042;14.472;2023-03-24T09:58:59;5.72;;;3.20;;
9821;SDS011;4950;46.042;14.472;2023-03-24T10:01:28;6.68;;;2.90;;
9821;SDS011;4950;46.042;14.472;2023-03-24T10:03:56;9.80;;;3.28;;
9821;SDS011;4950;46.042;14.472;2023-03-24T10:06:25;8.18;;;3.65;;
9821;SDS011;4950;46.042;14.472;2023-03-24T10:08:56;8.55;;;3.40;;
9821;SDS011;4950;46.042;14.472;2023-03-24T10:11:34;5.65;;;2.92;;
9821;SDS011;4950;46.042;14.472;2023-03-24T10:14:11;6.05;;;3.20;;
9821;SDS011;4950;46.042;14.472;2023-03-24T10:16:52;13.02;;;2.88;;
9821;SDS011;4950;46.042;14.472;2023-03-24T10:19:25;10.38;;;2.53;;
9821;SDS011;4950;46.042;14.472;2023-03-24T10:22:04;6.38;;;2.53;;
9821;SDS011;4950;46.042;14.472;2023-03-24T10:24:39;7.82;;;2.72;;
9821;SDS011;4950;46.042;14.472;2023-03-24T10:27:13;4.65;;;2.42;;
9821;SDS011;4950;46.042;14.472;2023-03-24T10:29:46;6.07;;;2.95;;
9821;SDS011;4950;46.042;14.472;2023-03-24T10:32:18;5.60;;;2.60;;
9821;SDS011;4950;46.042;14.472;2023-03-24T10:34:47;8.02;;;2.67;;
9821;SDS011;4950;46.042;14.472;2023-03-24T10:37:19;6.95;;;2.90;;
9821;SDS011;4950;46.042;14.472;2023-03-24T10:39:47;6.28;;;2.45;;
9821;SDS011;4950;46.042;14.472;2023-03-24T10:42:15;10.38;;;2.75;;
9821;SDS011;4950;46.042;14.472;2023-03-24T10:44:45;5.55;;;2.50;;
9821;SDS011;4950;46.042;14.472;2023-03-24T10:47:22;6.75;;;2.83;;
9821;SDS011;4950;46.042;14.472;2023-03-24T10:49:52;9.60;;;2.80;;
9821;SDS011;4950;46.042;14.472;2023-03-24T10:52:19;7.18;;;2.88;;
9821;SDS011;4950;46.042;14.472;2023-03-24T10:54:53;7.40;;;2.70;;
9821;SDS011;4950;46.042;14.472;2023-03-24T10:57:22;8.63;;;2.70;;
9821;SDS011;4950;46.042;14.472;2023-03-24T10:59:51;4.82;;;2.90;;
9821;SDS011;4950;46.042;14.472;2023-03-24T11:02:21;4.53;;;2.47;;
9821;SDS011;4950;46.042;14.472;2023-03-24T11:04:51;4.72;;;2.90;;
9821;SDS011;4950;46.042;14.472;2023-03-24T11:07:22;5.00;;;2.70;;
9821;SDS011;4950;46.042;14.472;2023-03-24T11:09:59;5.85;;;3.28;;
9821;SDS011;4950;46.042;14.472;2023-03-24T11:12:30;6.90;;;3.03;;
9821;SDS011;4950;46.042;14.472;2023-03-24T11:15:02;10.93;;;4.43;;
9821;SDS011;4950;46.042;14.472;2023-03-24T11:17:40;7.03;;;3.30;;
9821;SDS011;4950;46.042;14.472;2023-03-24T11:20:13;8.02;;;3.17;;
9821;SDS011;4950;46.042;14.472;2023-03-24T11:22:46;9.00;;;3.60;;
9821;SDS011;4950;46.042;14.472;2023-03-24T11:25:24;11.90;;;3.63;;
9821;SDS011;4950;46.042;14.472;2023-03-24T11:27:52;8.85;;;3.60;;
9821;SDS011;4950;46.042;14.472;2023-03-24T11:30:24;8.82;;;3.42;;
9821;SDS011;4950;46.042;14.472;2023-03-24T11:32:55;9.70;;;3.83;;
9821;SDS011;4950;46.042;14.472;2023-03-24T11:35:23;8.45;;;3.25;;
9821;SDS011;4950;46.042;14.472;2023-03-24T11:37:50;7.20;;;3.05;;
9821;SDS011;4950;46.042;14.472;2023-03-24T11:40:18;10.48;;;3.45;;
9821;SDS011;4950;46.042;14.472;2023-03-24T11:42:55;8.88;;;3.30;;
9821;SDS011;4950;46.042;14.472;2023-03-24T11:45:27;8.27;;;3.22;;
9821;SDS011;4950;46.042;14.472;2023-03-24T11:48:01;6.60;;;3.65;;
9821;SDS011;4950;46.042;14.472;2023-03-24T11:50:36;9.23;;;2.88;;
9821;SDS011;4950;46.042;14.472;2023-03-24T11:53:06;6.78;;;3.33;;
9821;SDS011;4950;46.042;14.472;2023-03-24T11:55:39;4.35;;;2.88;;
9821;SDS011;4950;46.042;14.472;2023-03-24T11:58:15;8.25;;;3.00;;
9821;SDS011;4950;46.042;14.472;2023-03-24T12:00:53;6.20;;;3.28;;
9821;SDS011;4950;46.042;14.472;2023-03-24T12:06:40;8.63;;;3.10;;
9821;SDS011;4950;46.042;14.472;2023-03-24T12:09:20;8.13;;;3.63;;
9821;SDS011;4950;46.042;14.472;2023-03-24T12:11:53;8.43;;;3.17;;
9821;SDS011;4950;46.042;14.472;2023-03-24T12:14:33;6.80;;;3.22;;
9821;SDS011;4950;46.042;14.472;2023-03-24T12:17:07;4.60;;;2.90;;
9821;SDS011;4950;46.042;14.472;2023-03-24T12:22:35;6.35;;;3.00;;
9821;SDS011;4950;46.042;14.472;2023-03-24T12:25:19;7.03;;;3.30;;
9821;SDS011;4950;46.042;14.472;2023-03-24T12:31:18;8.05;;;3.17;;
9821;SDS011;4950;46.042;14.472;2023-03-24T12:33:58;7.15;;;3.00;;
9821;SDS011;4950;46.042;14.472;2023-03-24T12:36:40;9.65;;;3.58;;
9821;SDS011;4950;46.042;14.472;2023-03-24T12:39:13;5.50;;;3.42;;
9821;SDS011;4950;46.042;14.472;2023-03-24T12:41:53;7.90;;;3.30;;
9821;SDS011;4950;46.042;14.472;2023-03-24T12:44:35;18.40;;;4.07;;
9821;SDS011;4950;46.042;14.472;2023-03-24T12:47:31;9.55;;;3.45;;
9821;SDS011;4950;46.042;14.472;2023-03-24T12:50:17;7.70;;;3.30;;
9821;SDS011;4950;46.042;14.472;2023-03-24T12:52:57;6.43;;;3.75;;
9821;SDS011;4950;46.042;14.472;2023-03-24T12:55:32;6.70;;;3.25;;
9821;SDS011;4950;46.042;14.472;2023-03-24T12:58:06;6.82;;;3.60;;
9821;SDS011;4950;46.042;14.472;2023-03-24T13:00:40;14.15;;;4.28;;
9821;SDS011;4950;46.042;14.472;2023-03-24T13:03:11;11.90;;;4.10;;
9821;SDS011;4950;46.042;14.472;2023-03-24T13:05:44;7.50;;;4.07;;
9821;SDS011;4950;46.042;14.472;2023-03-24T13:08:17;7.53;;;3.88;;
9821;SDS011;4950;46.042;14.472;2023-03-24T13:10:53;8.38;;;3.90;;
9821;SDS011;4950;46.042;14.472;2023-03-24T13:13:27;7.68;;;4.32;;
9821;SDS011;4950;46.042;14.472;2023-03-24T13:15:59;9.13;;;4.43;;
9821;SDS011;4950;46.042;14.472;2023-03-24T13:18:32;8.02;;;3.95;;
9821;SDS011;4950;46.042;14.472;2023-03-24T13:21:02;8.60;;;3.65;;
9821;SDS011;4950;46.042;14.472;2023-03-24T13:23:38;9.30;;;4.85;;
9821;SDS011;4950;46.042;14.472;2023-03-24T13:26:10;10.32;;;4.68;;
9821;SDS011;4950;46.042;14.472;2023-03-24T13:28:46;8.18;;;4.57;;
9821;SDS011;4950;46.042;14.472;2023-03-24T13:31:23;12.43;;;4.60;;
9821;SDS011;4950;46.042;14.472;2023-03-24T13:33:58;15.02;;;5.72;;
9821;SDS011;4950;46.042;14.472;2023-03-24T13:36:32;10.77;;;5.03;;
9821;SDS011;4950;46.042;14.472;2023-03-24T13:39:10;10.55;;;5.50;;
9821;SDS011;4950;46.042;14.472;2023-03-24T13:41:39;11.25;;;5.15;;
9821;SDS011;4950;46.042;14.472;2023-03-24T13:44:15;9.98;;;4.70;;
9821;SDS011;4950;46.042;14.472;2023-03-24T13:46:57;23.38;;;6.70;;
9821;SDS011;4950;46.042;14.472;2023-03-24T13:49:31;10.55;;;5.70;;
9821;SDS011;4950;46.042;14.472;2023-03-24T13:52:01;12.30;;;6.93;;
9821;SDS011;4950;46.042;14.472;2023-03-24T13:54:29;11.98;;;6.47;;
9821;SDS011;4950;46.042;14.472;2023-03-24T13:57:00;21.05;;;6.57;;
9821;SDS011;4950;46.042;14.472;2023-03-24T13:59:30;15.25;;;7.28;;
9821;SDS011;4950;46.042;14.472;2023-03-24T14:02:17;10.88;;;6.72;;
9821;SDS011;4950;46.042;14.472;2023-03-24T14:04:51;21.15;;;6.82;;
9821;SDS011;4950;46.042;14.472;2023-03-24T14:07:29;13.02;;;6.65;;
9821;SDS011;4950;46.042;14.472;2023-03-24T14:09:59;17.00;;;7.70;;
9821;SDS011;4950;46.042;14.472;2023-03-24T14:12:27;11.57;;;6.65;;
9821;SDS011;4950;46.042;14.472;2023-03-24T14:15:14;17.15;;;7.78;;
9821;SDS011;4950;46.042;14.472;2023-03-24T14:17:44;18.35;;;7.25;;
9821;SDS011;4950;46.042;14.472;2023-03-24T14:20:23;19.92;;;8.20;;
9821;SDS011;4950;46.042;14.472;2023-03-24T14:22:52;12.38;;;6.45;;
9821;SDS011;4950;46.042;14.472;2023-03-24T14:25:23;16.23;;;7.13;;
9821;SDS011;4950;46.042;14.472;2023-03-24T14:27:52;18.65;;;5.82;;
9821;SDS011;4950;46.042;14.472;2023-03-24T14:30:20;15.23;;;5.70;;
9821;SDS011;4950;46.042;14.472;2023-03-24T14:32:50;14.18;;;5.05;;
9821;SDS011;4950;46.042;14.472;2023-03-24T14:35:28;16.35;;;5.30;;
9821;SDS011;4950;46.042;14.472;2023-03-24T14:37:59;9.30;;;5.53;;
9821;SDS011;4950;46.042;14.472;2023-03-24T14:40:28;12.57;;;6.53;;
9821;SDS011;4950;46.042;14.472;2023-03-24T14:43:11;20.17;;;6.57;;
9821;SDS011;4950;46.042;14.472;2023-03-24T14:48:28;13.45;;;7.07;;
9821;SDS011;4950;46.042;14.472;2023-03-24T14:50:59;13.55;;;7.35;;
9821;SDS011;4950;46.042;14.472;2023-03-24T14:53:33;10.25;;;6.60;;
9821;SDS011;4950;46.042;14.472;2023-03-24T14:56:03;16.15;;;6.75;;
9821;SDS011;4950;46.042;14.472;2023-03-24T14:58:34;18.48;;;6.63;;
9821;SDS011;4950;46.042;14.472;2023-03-24T15:01:03;9.00;;;6.25;;
9821;SDS011;4950;46.042;14.472;2023-03-24T15:03:32;21.65;;;7.05;;
9821;SDS011;4950;46.042;14.472;2023-03-24T15:06:15;13.05;;;7.82;;
9821;SDS011;4950;46.042;14.472;2023-03-24T15:08:43;12.25;;;7.25;;
9821;SDS011;4950;46.042;14.472;2023-03-24T15:11:14;13.18;;;7.55;;
9821;SDS011;4950;46.042;14.472;2023-03-24T15:13:44;12.93;;;8.82;;
9821;SDS011;4950;46.042;14.472;2023-03-24T15:16:18;15.65;;;8.85;;
9821;SDS011;4950;46.042;14.472;2023-03-24T15:18:48;21.80;;;9.20;;
9821;SDS011;4950;46.042;14.472;2023-03-24T15:23:50;23.10;;;11.05;;
9821;SDS011;4950;46.042;14.472;2023-03-24T15:26:18;18.13;;;10.65;;
9821;SDS011;4950;46.042;14.472;2023-03-24T15:28:54;19.00;;;12.18;;
9821;SDS011;4950;46.042;14.472;2023-03-24T15:31:22;20.35;;;12.15;;
9821;SDS011;4950;46.042;14.472;2023-03-24T15:33:54;21.05;;;12.88;;
9821;SDS011;4950;46.042;14.472;2023-03-24T15:36:32;21.70;;;13.98;;
9821;SDS011;4950;46.042;14.472;2023-03-24T15:39:14;24.60;;;12.20;;
9821;SDS011;4950;46.042;14.472;2023-03-24T15:44:09;25.48;;;13.98;;
9821;SDS011;4950;46.042;14.472;2023-03-24T15:46:44;20.27;;;14.00;;
9821;SDS011;4950;46.042;14.472;2023-03-24T15:49:15;19.98;;;14.27;;
9821;SDS011;4950;46.042;14.472;2023-03-24T15:51:49;18.45;;;14.05;;
9821;SDS011;4950;46.042;14.472;2023-03-24T15:54:20;22.65;;;15.15;;
9821;SDS011;4950;46.042;14.472;2023-03-24T15:56:58;21.50;;;14.18;;